sensor_id;sensor_type;location;lat;lon;timestamp;pressure;altitude;pressure_sealevel;temperature;humidity
52625;BME280;38519;52.540;13.410;2023-03-14T00:02:25;98504.22;;;11.63;100.00
52625;BME280;38519;52.540;13.410;2023-03-14T00:04:50;98500.72;;;11.62;100.00
52625;BME280;38519;52.540;13.410;2023-03-14T00:07:18;98504.00;;;11.57;100.00
52625;BME280;38519;52.540;13.410;2023-03-14T00:09:43;98497.06;;;11.57;100.00
52625;BME280;38519;52.540;13.410;2023-03-14T00:12:09;98492.66;;;11.56;100.00
52625;BME280;38519;52.540;13.410;2023-03-14T00:14:34;98490.66;;;11.49;100.00
52625;BME280;38519;52.540;13.410;2023-03-14T00:16:59;98483.69;;;11.48;100.00
52625;BME280;38519;52.540;13.410;2023-03-14T00:19:24;98471.59;;;11.52;100.00
52625;BME280;38519;52.540;13.410;2023-03-14T00:21:51;98463.56;;;11.45;100.00
52625;BME280;38519;52.540;13.410;2023-03-14T00:24:16;98456.38;;;11.38;100.00
52625;BME280;38519;52.540;13.410;2023-03-14T00:26:41;98446.53;;;11.31;100.00
52625;BME280;38519;52.540;13.410;2023-03-14T00:29:06;98446.38;;;11.26;100.00
52625;BME280;38519;52.540;13.410;2023-03-14T00:31:32;98442.06;;;11.27;100.00
52625;BME280;38519;52.540;13.410;2023-03-14T00:33:57;98440.94;;;11.20;100.00
52625;BME280;38519;52.540;13.410;2023-03-14T00:36:22;98431.34;;;11.19;100.00
52625;BME280;38519;52.540;13.410;2023-03-14T00:38:49;98433.09;;;11.20;100.00
52625;BME280;38519;52.540;13.410;2023-03-14T00:41:16;98416.44;;;11.17;100.00
52625;BME280;38519;52.540;13.410;2023-03-14T00:43:42;98410.19;;;11.11;100.00
52625;BME280;38519;52.540;13.410;2023-03-14T00:46:07;98422.22;;;11.06;100.00
52625;BME280;38519;52.540;13.410;2023-03-14T00:48:33;98439.78;;;11.12;100.00
52625;BME280;38519;52.540;13.410;2023-03-14T00:50:58;98419.81;;;11.13;100.00
52625;BME280;38519;52.540;13.410;2023-03-14T00:53:23;98419.66;;;11.08;100.00
52625;BME280;38519;52.540;13.410;2023-03-14T00:55:49;98417.03;;;11.08;100.00
52625;BME280;38519;52.540;13.410;2023-03-14T00:58:15;98410.09;;;11.08;100.00
52625;BME280;38519;52.540;13.410;2023-03-14T01:00:41;98401.97;;;11.01;100.00
52625;BME280;38519;52.540;13.410;2023-03-14T01:03:06;98387.22;;;11.01;100.00
52625;BME280;38519;52.540;13.410;2023-03-14T01:05:32;98381.94;;;11.00;100.00
52625;BME280;38519;52.540;13.410;2023-03-14T01:07:58;98382.81;;;11.00;100.00
52625;BME280;38519;52.540;13.410;2023-03-14T01:10:23;98375.72;;;10.96;100.00
52625;BME280;38519;52.540;13.410;2023-03-14T01:12:48;98371.50;;;11.00;100.00
52625;BME280;38519;52.540;13.410;2023-03-14T01:15:14;98383.41;;;10.91;100.00
52625;BME280;38519;52.540;13.410;2023-03-14T01:17:39;98390.19;;;10.86;100.00
52625;BME280;38519;52.540;13.410;2023-03-14T01:20:05;98404.03;;;10.84;100.00
52625;BME280;38519;52.540;13.410;2023-03-14T01:22:34;98422.31;;;10.84;100.00
52625;BME280;38519;52.540;13.410;2023-03-14T01:24:59;98438.13;;;10.88;100.00
52625;BME280;38519;52.540;13.410;2023-03-14T01:27:24;98453.69;;;10.85;100.00
52625;BME280;38519;52.540;13.410;2023-03-14T01:29:50;98456.34;;;10.87;100.00
52625;BME280;38519;52.540;13.410;2023-03-14T01:32:15;98456.25;;;10.84;100.00
52625;BME280;38519;52.540;13.410;2023-03-14T01:34:40;98465.78;;;10.83;100.00
52625;BME280;38519;52.540;13.410;2023-03-14T01:37:06;98458.91;;;10.85;100.00
52625;BME280;38519;52.540;13.410;2023-03-14T01:39:32;98462.34;;;10.84;100.00
52625;BME280;38519;52.540;13.410;2023-03-14T01:41:59;98465.88;;;10.86;100.00
52625;BME280;38519;52.540;13.410;2023-03-14T01:44:24;98455.66;;;10.92;100.00
52625;BME280;38519;52.540;13.410;2023-03-14T01:46:50;98473.00;;;10.90;100.00
52625;BME280;38519;52.540;13.410;2023-03-14T01:54:46;98490.66;;;10.98;100.00
52625;BME280;38519;52.540;13.410;2023-03-14T01:59:38;98476.66;;;10.96;100.00
52625;BME280;38519;52.540;13.410;2023-03-14T02:02:06;98471.44;;;10.96;100.00
52625;BME280;38519;52.540;13.410;2023-03-14T02:04:35;98450.56;;;10.96;100.00
52625;BME280;38519;52.540;13.410;2023-03-14T02:07:47;98443.50;;;10.93;100.00
52625;BME280;38519;52.540;13.410;2023-03-14T02:09:46;98445.97;;;10.88;100.00
52625;BME280;38519;52.540;13.410;2023-03-14T02:12:11;98440.81;;;10.90;100.00
52625;BME280;38519;52.540;13.410;2023-03-14T02:14:39;98433.78;;;10.89;100.00
52625;BME280;38519;52.540;13.410;2023-03-14T02:17:06;98432.91;;;10.88;100.00
52625;BME280;38519;52.540;13.410;2023-03-14T02:19:45;98422.19;;;10.81;100.00
52625;BME280;38519;52.540;13.410;2023-03-14T02:22:13;98432.47;;;10.76;100.00
52625;BME280;38519;52.540;13.410;2023-03-14T02:27:14;98429.19;;;10.82;100.00
52625;BME280;38519;52.540;13.410;2023-03-14T02:29:42;98424.13;;;10.86;100.00
52625;BME280;38519;52.540;13.410;2023-03-14T02:32:10;98426.63;;;10.83;100.00
52625;BME280;38519;52.540;13.410;2023-03-14T02:34:36;98419.81;;;10.87;100.00
52625;BME280;38519;52.540;13.410;2023-03-14T02:37:01;98423.25;;;10.86;100.00
52625;BME280;38519;52.540;13.410;2023-03-14T02:39:38;98418.13;;;10.89;100.00
52625;BME280;38519;52.540;13.410;2023-03-14T02:42:03;98421.66;;;10.91;100.00
52625;BME280;38519;52.540;13.410;2023-03-14T02:44:28;98417.50;;;10.96;100.00
52625;BME280;38519;52.540;13.410;2023-03-14T02:46:54;98410.41;;;10.92;100.00
52625;BME280;38519;52.540;13.410;2023-03-14T02:49:19;98401.72;;;10.93;100.00
52625;BME280;38519;52.540;13.410;2023-03-14T02:51:44;98398.97;;;10.88;100.00
52625;BME280;38519;52.540;13.410;2023-03-14T02:54:10;98394.41;;;10.83;100.00
52625;BME280;38519;52.540;13.410;2023-03-14T02:56:35;98393.53;;;10.82;100.00
52625;BME280;38519;52.540;13.410;2023-03-14T02:59:02;98389.13;;;10.81;100.00
52625;BME280;38519;52.540;13.410;2023-03-14T03:01:28;98370.03;;;10.82;100.00
52625;BME280;38519;52.540;13.410;2023-03-14T03:03:53;98370.75;;;10.78;100.00
52625;BME280;38519;52.540;13.410;2023-03-14T03:06:18;98365.47;;;10.77;100.00
52625;BME280;38519;52.540;13.410;2023-03-14T03:08:44;98362.66;;;10.70;100.00
52625;BME280;38519;52.540;13.410;2023-03-14T03:11:10;98347.75;;;10.66;100.00
52625;BME280;38519;52.540;13.410;2023-03-14T03:13:35;98346.88;;;10.66;100.00
52625;BME280;38519;52.540;13.410;2023-03-14T03:16:01;98326.00;;;10.67;100.00
52625;BME280;38519;52.540;13.410;2023-03-14T03:18:26;98324.16;;;10.63;100.00
52625;BME280;38519;52.540;13.410;2023-03-14T03:20:51;98316.25;;;10.62;100.00
52625;BME280;38519;52.540;13.410;2023-03-14T03:23:16;98322.41;;;10.64;100.00
52625;BME280;38519;52.540;13.410;2023-03-14T03:25:42;98318.88;;;10.62;100.00
52625;BME280;38519;52.540;13.410;2023-03-14T03:28:07;98328.44;;;10.61;100.00
52625;BME280;38519;52.540;13.410;2023-03-14T03:30:39;98343.06;;;10.57;100.00
52625;BME280;38519;52.540;13.410;2023-03-14T03:33:04;98350.84;;;10.56;100.00
52625;BME280;38519;52.540;13.410;2023-03-14T03:35:31;98348.28;;;10.57;100.00
52625;BME280;38519;52.540;13.410;2023-03-14T03:37:56;98346.50;;;10.55;100.00
52625;BME280;38519;52.540;13.410;2023-03-14T03:40:21;98350.78;;;10.54;100.00
52625;BME280;38519;52.540;13.410;2023-03-14T03:42:46;98356.94;;;10.55;100.00
52625;BME280;38519;52.540;13.410;2023-03-14T03:45:12;98356.94;;;10.55;100.00
52625;BME280;38519;52.540;13.410;2023-03-14T03:47:37;98356.88;;;10.53;100.00
52625;BME280;38519;52.540;13.410;2023-03-14T03:50:02;98353.41;;;10.54;100.00
52625;BME280;38519;52.540;13.410;2023-03-14T03:52:28;98337.75;;;10.54;100.00
52625;BME280;38519;52.540;13.410;2023-03-14T03:54:53;98336.88;;;10.54;100.00
52625;BME280;38519;52.540;13.410;2023-03-14T03:57:18;98333.38;;;10.53;100.00
52625;BME280;38519;52.540;13.410;2023-03-14T03:59:43;98339.53;;;10.55;100.00
52625;BME280;38519;52.540;13.410;2023-03-14T04:02:09;98337.69;;;10.51;100.00
52625;BME280;38519;52.540;13.410;2023-03-14T04:04:34;98339.44;;;10.52;100.00
52625;BME280;38519;52.540;13.410;2023-03-14T04:06:59;98340.13;;;10.47;100.00
52625;BME280;38519;52.540;13.410;2023-03-14T04:09:24;98357.47;;;10.46;100.00
52625;BME280;38519;52.540;13.410;2023-03-14T04:11:50;98334.84;;;10.45;100.00
52625;BME280;38519;52.540;13.410;2023-03-14T04:14:15;98329.53;;;10.42;100.00
52625;BME280;38519;52.540;13.410;2023-03-14T04:16:40;98335.66;;;10.44;100.00
52625;BME280;38519;52.540;13.410;2023-03-14T04:19:06;98342.50;;;10.41;100.00
52625;BME280;38519;52.540;13.410;2023-03-14T04:21:31;98340.78;;;10.41;100.00
52625;BME280;38519;52.540;13.410;2023-03-14T04:23:56;98337.22;;;10.39;100.00
52625;BME280;38519;52.540;13.410;2023-03-14T04:26:21;98327.78;;;10.43;100.00
52625;BME280;38519;52.540;13.410;2023-03-14T04:28:47;98329.53;;;10.42;100.00
52625;BME280;38519;52.540;13.410;2023-03-14T04:31:13;98332.13;;;10.42;100.00
52625;BME280;38519;52.540;13.410;2023-03-14T04:33:38;98319.84;;;10.39;100.00
52625;BME280;38519;52.540;13.410;2023-03-14T04:36:04;98315.56;;;10.42;100.00
52625;BME280;38519;52.540;13.410;2023-03-14T04:38:30;98319.91;;;10.41;100.00
52625;BME280;38519;52.540;13.410;2023-03-14T04:40:55;98301.75;;;10.44;100.00
52625;BME280;38519;52.540;13.410;2023-03-14T04:43:21;98305.97;;;10.41;100.00
52625;BME280;38519;52.540;13.410;2023-03-14T04:45:46;98298.94;;;10.38;100.00
52625;BME280;38519;52.540;13.410;2023-03-14T04:48:11;98298.88;;;10.36;100.00
52625;BME280;38519;52.540;13.410;2023-03-14T04:50:37;98291.78;;;10.32;100.00
52625;BME280;38519;52.540;13.410;2023-03-14T04:53:02;98290.13;;;10.34;100.00
52625;BME280;38519;52.540;13.410;2023-03-14T04:55:28;98280.56;;;10.35;100.00
52625;BME280;38519;52.540;13.410;2023-03-14T04:57:53;98276.25;;;10.35;100.00
52625;BME280;38519;52.540;13.410;2023-03-14T05:00:18;98270.19;;;10.36;100.00
52625;BME280;38519;52.540;13.410;2023-03-14T05:02:44;98283.13;;;10.33;100.00
52625;BME280;38519;52.540;13.410;2023-03-14T05:05:09;98289.25;;;10.34;100.00
52625;BME280;38519;52.540;13.410;2023-03-14T05:07:34;98292.00;;;10.38;100.00
52625;BME280;38519;52.540;13.410;2023-03-14T05:09:59;98297.25;;;10.40;100.00
52625;BME280;38519;52.540;13.410;2023-03-14T05:12:25;98295.50;;;10.39;100.00
52625;BME280;38519;52.540;13.410;2023-03-14T05:14:50;98292.84;;;10.37;100.00
52625;BME280;38519;52.540;13.410;2023-03-14T05:17:15;98280.56;;;10.35;100.00
52625;BME280;38519;52.540;13.410;2023-03-14T05:19:41;98284.03;;;10.34;100.00
52625;BME280;38519;52.540;13.410;2023-03-14T05:22:08;98279.69;;;10.34;100.00
52625;BME280;38519;52.540;13.410;2023-03-14T05:24:33;98263.84;;;10.30;100.00
52625;BME280;38519;52.540;13.410;2023-03-14T05:26:58;98268.44;;;10.35;100.00
52625;BME280;38519;52.540;13.410;2023-03-14T05:29:24;98268.38;;;10.34;100.00
52625;BME280;38519;52.540;13.410;2023-03-14T05:31:49;98270.97;;;10.34;100.00
52625;BME280;38519;52.540;13.410;2023-03-14T05:34:14;98268.22;;;10.31;100.00
52625;BME280;38519;52.540;13.410;2023-03-14T05:36:39;98260.13;;;10.23;100.00
52625;BME280;38519;52.540;13.410;2023-03-14T05:39:04;98269.81;;;10.27;100.00
52625;BME280;38519;52.540;13.410;2023-03-14T05:41:30;98266.63;;;10.34;100.00
52625;BME280;38519;52.540;13.410;2023-03-14T05:43:55;98257.94;;;10.34;100.00
52625;BME280;38519;52.540;13.410;2023-03-14T05:46:20;98270.84;;;10.31;100.00
52625;BME280;38519;52.540;13.410;2023-03-14T05:48:45;98268.31;;;10.32;100.00
52625;BME280;38519;52.540;13.410;2023-03-14T05:51:11;98276.19;;;10.34;100.00
52625;BME280;38519;52.540;13.410;2023-03-14T05:53:36;98271.03;;;10.35;100.00
52625;BME280;38519;52.540;13.410;2023-03-14T05:56:01;98264.25;;;10.41;100.00
52625;BME280;38519;52.540;13.410;2023-03-14T05:58:27;98262.50;;;10.41;100.00
52625;BME280;38519;52.540;13.410;2023-03-14T06:00:52;98267.78;;;10.43;100.00
52625;BME280;38519;52.540;13.410;2023-03-14T06:03:17;98274.84;;;10.45;100.00
52625;BME280;38519;52.540;13.410;2023-03-14T06:05:42;98267.88;;;10.46;100.00
52625;BME280;38519;52.540;13.410;2023-03-14T06:08:08;98264.34;;;10.44;100.00
52625;BME280;38519;52.540;13.410;2023-03-14T06:10:34;98266.97;;;10.44;100.00
52625;BME280;38519;52.540;13.410;2023-03-14T06:12:59;98265.38;;;10.49;100.00
52625;BME280;38519;52.540;13.410;2023-03-14T06:15:24;98265.34;;;10.47;100.00
52625;BME280;38519;52.540;13.410;2023-03-14T06:17:50;98265.44;;;10.50;100.00
52625;BME280;38519;52.540;13.410;2023-03-14T06:20:15;98260.28;;;10.52;100.00
52625;BME280;38519;52.540;13.410;2023-03-14T06:22:40;98255.97;;;10.54;100.00
52625;BME280;38519;52.540;13.410;2023-03-14T06:25:08;98258.59;;;10.54;100.00
52625;BME280;38519;52.540;13.410;2023-03-14T06:27:33;98261.31;;;10.57;100.00
52625;BME280;38519;52.540;13.410;2023-03-14T06:29:59;98264.91;;;10.61;100.00
52625;BME280;38519;52.540;13.410;2023-03-14T06:32:24;98267.56;;;10.62;100.00
52625;BME280;38519;52.540;13.410;2023-03-14T06:34:49;98268.59;;;10.67;100.00
52625;BME280;38519;52.540;13.410;2023-03-14T06:37:15;98272.22;;;10.71;100.00
52625;BME280;38519;52.540;13.410;2023-03-14T06:39:40;98266.19;;;10.73;100.00
52625;BME280;38519;52.540;13.410;2023-03-14T06:42:06;98270.63;;;10.76;100.00
52625;BME280;38519;52.540;13.410;2023-03-14T06:44:31;98274.22;;;10.80;100.00
52625;BME280;38519;52.540;13.410;2023-03-14T06:46:56;98270.91;;;10.84;100.00
52625;BME280;38519;52.540;13.410;2023-03-14T06:49:22;98283.19;;;10.88;100.00
52625;BME280;38519;52.540;13.410;2023-03-14T06:51:47;98291.13;;;10.91;100.00
52625;BME280;38519;52.540;13.410;2023-03-14T06:54:12;98305.09;;;10.93;100.00
52625;BME280;38519;52.540;13.410;2023-03-14T06:56:37;98300.09;;;10.99;100.00
52625;BME280;38519;52.540;13.410;2023-03-14T06:59:03;98299.50;;;11.08;100.00
52625;BME280;38519;52.540;13.410;2023-03-14T07:01:29;98299.50;;;11.08;100.00
52625;BME280;38519;52.540;13.410;2023-03-14T07:03:54;98302.22;;;11.11;100.00
52625;BME280;38519;52.540;13.410;2023-03-14T07:06:20;98305.97;;;11.19;100.00
52625;BME280;38519;52.540;13.410;2023-03-14T07:08:45;98303.50;;;11.24;100.00
52625;BME280;38519;52.540;13.410;2023-03-14T07:11:11;98313.00;;;11.22;100.00
52625;BME280;38519;52.540;13.410;2023-03-14T07:13:37;98313.03;;;11.23;100.00
52625;BME280;38519;52.540;13.410;2023-03-14T07:16:02;98318.97;;;11.18;100.00
52625;BME280;38519;52.540;13.410;2023-03-14T07:18:27;98318.72;;;11.10;100.00
52625;BME280;38519;52.540;13.410;2023-03-14T07:20:53;98319.44;;;11.04;100.00
52625;BME280;38519;52.540;13.410;2023-03-14T07:23:18;98314.94;;;11.00;100.00
52625;BME280;38519;52.540;13.410;2023-03-14T07:25:43;98314.88;;;10.99;100.00
52625;BME280;38519;52.540;13.410;2023-03-14T07:28:08;98319.22;;;10.98;100.00
52625;BME280;38519;52.540;13.410;2023-03-14T07:30:34;98324.50;;;11.00;100.00
52625;BME280;38519;52.540;13.410;2023-03-14T07:33:00;98322.81;;;11.02;100.00
52625;BME280;38519;52.540;13.410;2023-03-14T07:35:25;98333.22;;;11.00;100.00
52625;BME280;38519;52.540;13.410;2023-03-14T07:37:50;98329.63;;;10.97;100.00
52625;BME280;38519;52.540;13.410;2023-03-14T07:40:15;98326.91;;;10.93;100.00
52625;BME280;38519;52.540;13.410;2023-03-14T07:42:41;98329.47;;;10.92;100.00
52625;BME280;38519;52.540;13.410;2023-03-14T07:45:07;98340.69;;;10.89;100.00
52625;BME280;38519;52.540;13.410;2023-03-14T07:47:32;98330.19;;;10.88;100.00
52625;BME280;38519;52.540;13.410;2023-03-14T07:49:57;98335.47;;;10.89;100.00
52625;BME280;38519;52.540;13.410;2023-03-14T07:52:22;98334.59;;;10.89;100.00
52625;BME280;38519;52.540;13.410;2023-03-14T07:54:49;98345.91;;;10.89;100.00
52625;BME280;38519;52.540;13.410;2023-03-14T07:57:14;98338.13;;;10.91;100.00
52625;BME280;38519;52.540;13.410;2023-03-14T07:59:39;98328.59;;;10.93;100.00
52625;BME280;38519;52.540;13.410;2023-03-14T08:02:04;98335.28;;;11.10;100.00
52625;BME280;38519;52.540;13.410;2023-03-14T08:04:34;98324.97;;;11.15;100.00
52625;BME280;38519;52.540;13.410;2023-03-14T08:06:59;98318.47;;;11.29;100.00
52625;BME280;38519;52.540;13.410;2023-03-14T08:09:25;98317.84;;;11.37;100.00
52625;BME280;38519;52.540;13.410;2023-03-14T08:11:50;98317.84;;;11.37;100.00
52625;BME280;38519;52.540;13.410;2023-03-14T08:14:15;98302.09;;;11.35;100.00
52625;BME280;38519;52.540;13.410;2023-03-14T08:16:40;98307.72;;;11.49;100.00
52625;BME280;38519;52.540;13.410;2023-03-14T08:19:05;98305.50;;;11.61;100.00
52625;BME280;38519;52.540;13.410;2023-03-14T08:21:31;98311.34;;;11.81;100.00
52625;BME280;38519;52.540;13.410;2023-03-14T08:23:56;98315.84;;;11.87;100.00
52625;BME280;38519;52.540;13.410;2023-03-14T08:26:21;98308.41;;;11.99;100.00
52625;BME280;38519;52.540;13.410;2023-03-14T08:28:47;98317.06;;;11.98;100.00
52625;BME280;38519;52.540;13.410;2023-03-14T08:31:13;98320.53;;;11.97;100.00
52625;BME280;38519;52.540;13.410;2023-03-14T08:33:39;98318.84;;;11.99;100.00
52625;BME280;38519;52.540;13.410;2023-03-14T08:36:04;98323.91;;;11.93;100.00
52625;BME280;38519;52.540;13.410;2023-03-14T08:38:29;98326.47;;;11.92;100.00
52625;BME280;38519;52.540;13.410;2023-03-14T08:40:56;98330.00;;;11.94;100.00
52625;BME280;38519;52.540;13.410;2023-03-14T08:43:21;98332.34;;;11.86;100.00
52625;BME280;38519;52.540;13.410;2023-03-14T08:45:46;98329.69;;;11.83;100.00
52625;BME280;38519;52.540;13.410;2023-03-14T08:48:12;98330.31;;;11.76;100.00
52625;BME280;38519;52.540;13.410;2023-03-14T08:50:37;98332.31;;;11.83;100.00
52625;BME280;38519;52.540;13.410;2023-03-14T08:53:02;98334.81;;;11.80;100.00
52625;BME280;38519;52.540;13.410;2023-03-14T08:55:28;98347.75;;;11.75;100.00
52625;BME280;38519;52.540;13.410;2023-03-14T08:57:53;98348.72;;;11.79;100.00
52625;BME280;38519;52.540;13.410;2023-03-14T09:00:19;98352.25;;;11.81;100.00
52625;BME280;38519;52.540;13.410;2023-03-14T09:02:44;98346.16;;;11.80;100.00
52625;BME280;38519;52.540;13.410;2023-03-14T09:05:09;98345.38;;;11.83;100.00
52625;BME280;38519;52.540;13.410;2023-03-14T09:07:35;98345.84;;;11.98;100.00
52625;BME280;38519;52.540;13.410;2023-03-14T09:10:00;98343.69;;;12.14;100.00
52625;BME280;38519;52.540;13.410;2023-03-14T09:12:26;98344.25;;;12.35;100.00
52625;BME280;38519;52.540;13.410;2023-03-14T09:14:51;98334.06;;;12.45;100.00
52625;BME280;38519;52.540;13.410;2023-03-14T09:17:16;98330.13;;;12.61;100.00
52625;BME280;38519;52.540;13.410;2023-03-14T09:19:41;98321.97;;;12.50;100.00
52625;BME280;38519;52.540;13.410;2023-03-14T09:22:07;98321.50;;;12.31;100.00
52625;BME280;38519;52.540;13.410;2023-03-14T09:24:32;98321.56;;;12.34;100.00
52625;BME280;38519;52.540;13.410;2023-03-14T09:26:57;98313.00;;;12.40;100.00
52625;BME280;38519;52.540;13.410;2023-03-14T09:29:22;98309.66;;;12.46;100.00
52625;BME280;38519;52.540;13.410;2023-03-14T09:31:48;98304.69;;;12.56;100.00
52625;BME280;38519;52.540;13.410;2023-03-14T09:34:13;98311.13;;;12.69;100.00
52625;BME280;38519;52.540;13.410;2023-03-14T09:36:38;98310.63;;;12.83;100.00
52625;BME280;38519;52.540;13.410;2023-03-14T09:39:04;98304.25;;;13.09;100.00
52625;BME280;38519;52.540;13.410;2023-03-14T09:41:31;98308.06;;;13.22;100.00
52625;BME280;38519;52.540;13.410;2023-03-14T09:46:26;98309.47;;;13.44;100.00
52625;BME280;38519;52.540;13.410;2023-03-14T09:48:52;98311.75;;;13.29;100.00
52625;BME280;38519;52.540;13.410;2023-03-14T09:51:18;98310.72;;;13.24;100.00
52625;BME280;38519;52.540;13.410;2023-03-14T09:53:47;98307.00;;;13.14;100.00
52625;BME280;38519;52.540;13.410;2023-03-14T09:56:15;98317.09;;;12.97;100.00
52625;BME280;38519;52.540;13.410;2023-03-14T09:58:42;98308.25;;;12.93;100.00
52625;BME280;38519;52.540;13.410;2023-03-14T10:01:09;98309.81;;;12.87;100.00
52625;BME280;38519;52.540;13.410;2023-03-14T10:03:36;98317.59;;;12.84;100.00
52625;BME280;38519;52.540;13.410;2023-03-14T10:06:01;98329.56;;;12.74;100.00
52625;BME280;38519;52.540;13.410;2023-03-14T10:08:27;98329.91;;;12.86;100.00
52625;BME280;38519;52.540;13.410;2023-03-14T10:10:52;98328.31;;;12.93;100.00
52625;BME280;38519;52.540;13.410;2023-03-14T10:13:19;98328.25;;;12.90;100.00
52625;BME280;38519;52.540;13.410;2023-03-14T10:15:48;98321.97;;;12.83;100.00
52625;BME280;38519;52.540;13.410;2023-03-14T10:18:16;98326.28;;;12.81;100.00
52625;BME280;38519;52.540;13.410;2023-03-14T10:20:42;98329.06;;;12.87;100.00
52625;BME280;38519;52.540;13.410;2023-03-14T10:25:41;98322.31;;;12.97;100.00
52625;BME280;38519;52.540;13.410;2023-03-14T10:28:26;98325.91;;;13.01;100.00
52625;BME280;38519;52.540;13.410;2023-03-14T10:30:52;98322.44;;;13.02;100.00
52625;BME280;38519;52.540;13.410;2023-03-14T10:35:43;98330.31;;;13.02;100.00
52625;BME280;38519;52.540;13.410;2023-03-14T10:38:12;98323.19;;;12.98;100.00
52625;BME280;38519;52.540;13.410;2023-03-14T10:40:38;98326.53;;;12.92;100.00
52625;BME280;38519;52.540;13.410;2023-03-14T10:43:05;98325.66;;;12.91;100.00
52625;BME280;38519;52.540;13.410;2023-03-14T10:45:38;98327.41;;;12.91;100.00
52625;BME280;38519;52.540;13.410;2023-03-14T10:48:21;98326.44;;;12.87;100.00
52625;BME280;38519;52.540;13.410;2023-03-14T10:50:57;98332.44;;;12.83;100.00
52625;BME280;38519;52.540;13.410;2023-03-14T10:53:23;98324.78;;;12.91;100.00
52625;BME280;38519;52.540;13.410;2023-03-14T10:55:48;98331.69;;;12.87;100.00
52625;BME280;38519;52.540;13.410;2023-03-14T10:58:18;98330.69;;;12.84;100.00
52625;BME280;38519;52.540;13.410;2023-03-14T11:00:45;98334.28;;;12.86;100.00
52625;BME280;38519;52.540;13.410;2023-03-14T11:03:14;98329.31;;;12.98;100.00
52625;BME280;38519;52.540;13.410;2023-03-14T11:11:12;98337.88;;;12.91;100.00
52625;BME280;38519;52.540;13.410;2023-03-14T11:13:43;98322.16;;;12.91;100.00
52625;BME280;38519;52.540;13.410;2023-03-14T11:26:26;98321.34;;;12.93;100.00
52625;BME280;38519;52.540;13.410;2023-03-14T11:28:58;98320.63;;;12.99;100.00
52625;BME280;38519;52.540;13.410;2023-03-14T11:31:31;98319.75;;;12.99;100.00
52625;BME280;38519;52.540;13.410;2023-03-14T11:36:30;98309.97;;;12.93;100.00
52625;BME280;38519;52.540;13.410;2023-03-14T11:38:56;98315.31;;;12.96;100.00
52625;BME280;38519;52.540;13.410;2023-03-14T11:41:33;98323.13;;;12.94;100.00
52625;BME280;38519;52.540;13.410;2023-03-14T11:44:01;98309.44;;;13.06;100.00
52625;BME280;38519;52.540;13.410;2023-03-14T11:46:34;98319.19;;;13.12;100.00
52625;BME280;38519;52.540;13.410;2023-03-14T11:51:47;98309.56;;;13.12;100.00
52625;BME280;38519;52.540;13.410;2023-03-14T11:54:20;98314.53;;;13.00;100.00
52625;BME280;38519;52.540;13.410;2023-03-14T11:56:52;98319.03;;;13.06;100.00
52625;BME280;38519;52.540;13.410;2023-03-14T11:59:24;98316.75;;;13.20;100.00
52625;BME280;38519;52.540;13.410;2023-03-14T12:01:55;98316.16;;;13.32;100.00
52625;BME280;38519;52.540;13.410;2023-03-14T12:06:53;98319.59;;;13.29;100.00
52625;BME280;38519;52.540;13.410;2023-03-14T12:09:22;98312.94;;;13.42;100.00
52625;BME280;38519;52.540;13.410;2023-03-14T12:11:54;98298.63;;;13.30;100.00
52625;BME280;38519;52.540;13.410;2023-03-14T12:14:27;98295.53;;;13.45;100.00
52625;BME280;38519;52.540;13.410;2023-03-14T12:16:54;98296.63;;;13.55;100.00
52625;BME280;38519;52.540;13.410;2023-03-14T12:24:19;98301.53;;;13.05;100.00
52625;BME280;38519;52.540;13.410;2023-03-14T12:26:54;98289.25;;;13.02;100.00
52625;BME280;38519;52.540;13.410;2023-03-14T12:29:19;98293.50;;;12.97;100.00
52625;BME280;38519;52.540;13.410;2023-03-14T12:31:47;98297.41;;;13.15;100.00
52625;BME280;38519;52.540;13.410;2023-03-14T12:41:53;98287.72;;;13.47;100.00
52625;BME280;38519;52.540;13.410;2023-03-14T12:46:54;98280.06;;;13.58;100.00
52625;BME280;38519;52.540;13.410;2023-03-14T12:49:28;98285.13;;;13.48;100.00
52625;BME280;38519;52.540;13.410;2023-03-14T12:51:58;98290.13;;;13.38;100.00
52625;BME280;38519;52.540;13.410;2023-03-14T13:01:53;98286.13;;;13.55;100.00
52625;BME280;38519;52.540;13.410;2023-03-14T13:04:19;98285.34;;;13.21;100.00
52625;BME280;38519;52.540;13.410;2023-03-14T13:06:52;98295.63;;;13.14;100.00
52625;BME280;38519;52.540;13.410;2023-03-14T13:12:13;98281.41;;;12.67;100.00
52625;BME280;38519;52.540;13.410;2023-03-14T13:14:48;98280.47;;;12.64;100.00
52625;BME280;38519;52.540;13.410;2023-03-14T13:17:15;98268.66;;;12.46;100.00
52625;BME280;38519;52.540;13.410;2023-03-14T13:19:40;98276.06;;;12.29;100.00
52625;BME280;38519;52.540;13.410;2023-03-14T13:22:50;98278.22;;;12.12;100.00
52625;BME280;38519;52.540;13.410;2023-03-14T13:25:00;98289.63;;;12.14;100.00
52625;BME280;38519;52.540;13.410;2023-03-14T13:27:26;98282.84;;;12.23;100.00
52625;BME280;38519;52.540;13.410;2023-03-14T13:29:51;98270.13;;;12.03;100.00
52625;BME280;38519;52.540;13.410;2023-03-14T13:32:19;98260.94;;;13.24;100.00
52625;BME280;38519;52.540;13.410;2023-03-14T13:34:45;98252.25;;;14.09;100.00
52625;BME280;38519;52.540;13.410;2023-03-14T13:37:16;98244.53;;;14.65;100.00
52625;BME280;38519;52.540;13.410;2023-03-14T13:39:41;98244.97;;;14.90;100.00
52625;BME280;38519;52.540;13.410;2023-03-14T13:42:10;98247.03;;;15.11;100.00
52625;BME280;38519;52.540;13.410;2023-03-14T13:44:38;98236.69;;;15.22;100.00